Sparta, TN (38583)

3:42 AM CDT on August 02, 2015 (GMT -0500)
Bakers Crossroads | | Change Station
CLOSE
Current Station
Personal Weather Station
Location: Sparta, TN
Elevation: 1027 ft
Nearby Weather Stations

Elev 1027 ft 36.01 °N, 85.56 °W | Updated 7 seconds ago

Mostly Cloudy
Mostly Cloudy
62.2 °F
Feels Like 62.2 °F
N
0.0
Wind Variable Wind from WSW
Gusts 0.0 mph

Today
High -- | Low -- °F
--% Chance of Precip.
Yesterday
High -- | Low -- °F
Precip. -- in
5:49 AM 7:46 PM
Waning Gibbous, 95% visible
Pressure 30.00 in
Visibility 0.5 miles
Clouds Mostly Cloudy 100 ft
Dew Point 62 °F
Humidity 98%
Rainfall 0.00 in
Snow Depth Not available.
UV 0.0 out of 12
Pollen 4.90 out of 12
Air Quality Not available.
Flu Activity Not available.
METAR KSRB 020835Z AUTO 00000KT 1/2SM BKN001 16/15 A3000 RMK

More Conditions Fewer Conditions

Pressure 30.00 in
Visibility 0.5 miles
Clouds Mostly Cloudy 100 ft
Dew Point 62 °F
Humidity 98%
Rainfall 0.00 in
Snow Depth Not available.
UV 0.0 out of 12
Pollen 4.90 out of 12
Air Quality Not available.
Flu Activity Not available.
METAR KSRB 020835Z AUTO 00000KT 1/2SM BKN001 16/15 A3000 RMK

More Conditions Fewer Conditions

10-Day Weather Forecast

×

Almanac

Astronomy

Aug. 02, 2015 Rise Set
Actual Time
Civil Twilight
Nautical Twilight
Astronomical Twilight
Moon
Length of Visible Light
Length of Day
Tomorrow will be .
, % of the Moon is Illuminated

Today's Extremes

State Highs State Lows

Community

WunderPhotos

Upload Photos

1,843,208 photos uploaded!

WunderBlogs® & News

Nearby

Air Quality

  Air Quality AQ Index Pollutant
Not available.

Snow Depth

Station Depth Elevation

Earthquake Activity

City Distance Mag. Time & Date
Minimum magnitude displayed is 2.5.

Coastal Water Temperatures

Place Temperature

Stations

Nearby Weather Stations

Station Location Temp. Windchill Dew Point Humidity Wind Precip. Elev Updated Type